createdAt,value
2018-07-01T00:02:06.586Z,45.40
2018-07-01T00:04:37.260Z,44.30
2018-07-01T00:07:08.025Z,45.20
2018-07-01T00:09:39.373Z,43.00
2018-07-01T00:12:10.166Z,43.40
2018-07-01T00:14:41.009Z,42.90
2018-07-01T00:17:11.739Z,44.70
2018-07-01T00:19:42.273Z,45.10
2018-07-01T00:22:13.065Z,43.50
2018-07-01T00:29:43.923Z,45.30
2018-07-01T00:32:14.558Z,43.40
2018-07-01T00:34:45.166Z,45.00
2018-07-01T00:37:15.945Z,44.50
2018-07-01T00:39:46.701Z,46.00
2018-07-01T00:42:17.516Z,45.80
2018-07-01T00:44:48.272Z,44.30
2018-07-01T00:47:18.759Z,45.20
2018-07-01T00:49:50.128Z,46.20
2018-07-01T00:52:20.825Z,46.60
2018-07-01T00:54:51.897Z,47.30
2018-07-01T00:59:52.635Z,49.50
2018-07-01T01:04:54.328Z,47.90
2018-07-01T01:07:24.959Z,47.60
2018-07-01T01:09:55.583Z,46.60
2018-07-01T01:12:26.230Z,44.90
2018-07-01T01:14:56.787Z,47.80
2018-07-01T01:17:27.473Z,47.60
2018-07-01T01:19:58.136Z,45.00
2018-07-01T01:22:28.737Z,46.30
2018-07-01T01:24:59.489Z,46.70
2018-07-01T01:27:29.980Z,47.10
2018-07-01T01:30:00.811Z,48.90
2018-07-01T01:32:31.523Z,46.90
2018-07-01T01:35:02.774Z,48.10
2018-07-01T01:37:33.812Z,49.30
2018-07-01T01:40:05.692Z,48.60
2018-07-01T01:42:45.384Z,46.30
2018-07-01T01:45:22.925Z,49.20
2018-07-01T01:48:00.411Z,48.20
2018-07-01T01:50:39.517Z,49.90
2018-07-01T01:53:17.291Z,49.10
2018-07-01T01:56:54.064Z,47.00
2018-07-01T01:59:32.455Z,48.00
2018-07-01T02:02:07.396Z,49.10
2018-07-01T02:07:15.893Z,49.30
2018-07-01T02:09:46.608Z,50.40
2018-07-01T02:12:17.287Z,49.20
2018-07-01T02:14:52.061Z,51.10
2018-07-01T02:17:28.791Z,50.90
2018-07-01T02:19:59.479Z,49.40
2018-07-01T02:22:38.511Z,50.00
2018-07-01T02:25:13.186Z,49.50
2018-07-01T02:27:43.807Z,49.60
2018-07-01T02:30:14.309Z,49.60
2018-07-01T02:32:45.433Z,52.30
2018-07-01T02:35:15.961Z,49.80
2018-07-01T02:37:46.553Z,51.40
2018-07-01T02:42:47.510Z,50.10
2018-07-01T02:47:48.187Z,52.60
2018-07-01T02:52:49.101Z,49.00
2018-07-01T02:55:19.761Z,49.00
2018-07-01T02:57:50.208Z,49.80
2018-07-01T03:00:20.874Z,50.80
2018-07-01T03:02:51.443Z,50.90
2018-07-01T03:05:22.039Z,50.80
2018-07-01T03:07:52.588Z,51.30
2018-07-01T03:10:23.260Z,52.00
2018-07-01T03:12:53.749Z,53.00
2018-07-01T03:17:54.381Z,52.80
2018-07-01T03:20:25.475Z,53.90
2018-07-01T03:22:57.204Z,53.40
2018-07-01T03:25:27.966Z,53.00
2018-07-01T03:27:58.586Z,54.60
2018-07-01T03:30:29.279Z,53.90
2018-07-01T03:32:59.914Z,54.60
2018-07-01T03:35:30.408Z,53.70
2018-07-01T03:38:00.938Z,54.70
2018-07-01T03:40:31.750Z,54.80
2018-07-01T03:45:32.643Z,53.60
2018-07-01T03:48:03.464Z,53.90
2018-07-01T03:50:34.303Z,54.70
2018-07-01T03:53:05.193Z,54.80
2018-07-01T03:58:06.730Z,55.20
2018-07-01T04:00:37.912Z,55.80
2018-07-01T04:03:08.794Z,56.00
2018-07-01T04:05:39.447Z,55.90
2018-07-01T04:08:10.322Z,55.70
2018-07-01T04:10:40.947Z,55.90
2018-07-01T04:15:42.422Z,57.00
2018-07-01T04:20:43.075Z,56.90
2018-07-01T04:23:14.321Z,56.30
2018-07-01T04:25:44.884Z,54.80
2018-07-01T04:28:16.938Z,56.50
2018-07-01T04:30:48.307Z,55.80
2018-07-01T04:33:18.856Z,57.10
2018-07-01T04:35:49.447Z,54.30
2018-07-01T04:38:19.994Z,56.50
2018-07-01T04:40:50.706Z,56.60
2018-07-01T04:43:21.381Z,56.90
2018-07-01T04:45:52.176Z,57.30
2018-07-01T04:48:22.862Z,54.70
2018-07-01T04:50:53.377Z,54.80
2018-07-01T04:53:24.052Z,57.90
2018-07-01T04:58:26.062Z,58.20
2018-07-01T05:00:56.860Z,55.20
2018-07-01T05:03:27.463Z,55.90
2018-07-01T05:05:58.083Z,57.90
2018-07-01T05:08:28.776Z,58.40
2018-07-01T05:10:59.364Z,56.20
2018-07-01T05:13:29.864Z,56.40
2018-07-01T05:16:01.097Z,56.80
2018-07-01T05:18:32.238Z,54.20
2018-07-01T05:21:02.941Z,54.40
2018-07-01T05:23:33.440Z,51.10
2018-07-01T05:26:04.162Z,50.00
2018-07-01T05:28:34.854Z,45.40
2018-07-01T05:31:05.749Z,40.60
2018-07-01T05:33:37.292Z,38.00
2018-07-01T05:36:07.898Z,35.70
2018-07-01T05:38:38.610Z,32.30
2018-07-01T05:41:09.354Z,30.10
2018-07-01T05:43:40.137Z,29.40
2018-07-01T05:46:11.125Z,28.00
2018-07-01T05:48:41.893Z,27.60
2018-07-01T05:51:12.577Z,28.40
2018-07-01T05:53:43.112Z,27.80
2018-07-01T05:56:13.864Z,29.60
2018-07-01T05:58:45.125Z,27.00
2018-07-01T06:01:16.239Z,27.30
2018-07-01T06:03:46.908Z,26.40
2018-07-01T06:06:17.587Z,28.10
2018-07-01T06:11:23.743Z,26.60
2018-07-01T06:13:54.433Z,26.70
2018-07-01T06:16:25.618Z,24.00
2018-07-01T06:18:56.086Z,25.90
2018-07-01T06:21:27.804Z,23.90
2018-07-01T06:23:58.276Z,27.00
2018-07-01T06:26:29.508Z,27.00
2018-07-01T06:29:00.131Z,24.60
2018-07-01T06:31:31.630Z,24.40
2018-07-01T06:34:02.236Z,26.70
2018-07-01T06:36:32.740Z,24.60
2018-07-01T06:39:04.443Z,26.00
2018-07-01T06:41:35.076Z,23.80
2018-07-01T06:44:06.104Z,23.70
2018-07-01T06:46:38.323Z,22.90
2018-07-01T06:49:09.046Z,24.20
2018-07-01T06:51:39.527Z,23.90
2018-07-01T06:54:11.087Z,23.80
2018-07-01T06:56:41.876Z,23.90
2018-07-01T06:59:12.508Z,25.10
2018-07-01T07:01:43.307Z,24.40
2018-07-01T07:04:14.034Z,24.30
2018-07-01T07:06:44.723Z,23.70
2018-07-01T07:09:15.297Z,23.10
2018-07-01T07:11:45.905Z,25.40
2018-07-01T07:14:16.415Z,23.30
2018-07-01T07:16:47.176Z,24.00
2018-07-01T07:19:17.921Z,23.30
2018-07-01T07:21:48.564Z,23.00
2018-07-01T07:24:19.153Z,23.40
2018-07-01T07:26:49.697Z,23.30
2018-07-01T07:29:20.421Z,26.60
2018-07-01T07:31:51.384Z,25.60
2018-07-01T07:34:21.929Z,26.40
2018-07-01T07:36:52.603Z,25.90
2018-07-01T07:39:23.180Z,24.20
2018-07-01T07:41:53.996Z,23.10
2018-07-01T07:44:24.531Z,22.70
2018-07-01T07:46:55.156Z,25.00
2018-07-01T07:49:25.695Z,23.70
2018-07-01T07:51:56.431Z,23.80
2018-07-01T07:54:27.096Z,25.20
2018-07-01T07:56:57.786Z,23.20
2018-07-01T07:59:28.459Z,24.20
2018-07-01T08:01:59.160Z,24.00
2018-07-01T08:04:29.741Z,25.90
2018-07-01T08:07:00.465Z,24.40
2018-07-01T08:09:31.114Z,26.00
2018-07-01T08:12:02.840Z,27.20
2018-07-01T08:14:37.618Z,23.90
2018-07-01T08:17:08.174Z,25.00
2018-07-01T08:19:38.908Z,24.90
2018-07-01T08:22:09.521Z,25.10
2018-07-01T08:24:40.289Z,26.60
2018-07-01T08:27:10.905Z,23.60
2018-07-01T08:29:41.508Z,26.20
2018-07-01T08:32:12.217Z,23.30
2018-07-01T08:34:42.927Z,24.00
2018-07-01T08:37:13.591Z,23.90
2018-07-01T08:39:44.436Z,24.30
2018-07-01T08:42:27.322Z,24.90
2018-07-01T08:44:58.811Z,23.50
2018-07-01T08:47:29.837Z,26.40
2018-07-01T08:50:00.420Z,25.60
2018-07-01T08:52:31.569Z,25.30
2018-07-01T08:55:01.997Z,24.00
2018-07-01T08:57:32.521Z,24.00
2018-07-01T09:00:03.819Z,24.50
2018-07-01T09:02:34.364Z,23.30
2018-07-01T09:05:05.845Z,24.10
2018-07-01T09:07:36.607Z,23.90
2018-07-01T09:10:07.644Z,23.40
2018-07-01T09:12:38.827Z,25.80
2018-07-01T09:15:09.733Z,23.70
2018-07-01T09:17:40.957Z,25.30
2018-07-01T09:20:11.588Z,24.30
2018-07-01T09:22:42.170Z,22.30
2018-07-01T09:25:12.929Z,22.80
2018-07-01T09:27:43.428Z,22.70
2018-07-01T09:30:14.348Z,24.90
2018-07-01T09:32:45.119Z,26.50
2018-07-01T09:35:15.762Z,24.20
2018-07-01T09:37:46.307Z,22.00
2018-07-01T09:40:17.044Z,23.40
2018-07-01T09:45:18.742Z,22.70
2018-07-01T09:47:49.560Z,23.20
2018-07-01T09:50:20.363Z,21.50
2018-07-01T09:52:50.877Z,22.20
2018-07-01T09:55:21.531Z,21.70
2018-07-01T09:57:52.067Z,23.20
2018-07-01T10:00:22.641Z,22.60
2018-07-01T10:02:53.485Z,24.10
2018-07-01T10:05:24.209Z,22.50
2018-07-01T10:07:55.296Z,23.90
2018-07-01T10:10:25.808Z,22.00
2018-07-01T10:12:56.225Z,24.10
2018-07-01T10:15:27.301Z,24.00
2018-07-01T10:17:58.140Z,23.30
2018-07-01T10:20:28.726Z,24.20
2018-07-01T10:23:00.216Z,23.20
2018-07-01T10:25:30.971Z,24.60
2018-07-01T10:28:02.042Z,23.70
2018-07-01T10:30:32.738Z,23.80
2018-07-01T10:33:03.572Z,24.20
2018-07-01T10:35:35.134Z,22.00
2018-07-01T10:38:06.871Z,22.40
2018-07-01T10:40:37.574Z,22.40
2018-07-01T10:43:08.052Z,22.80
2018-07-01T10:45:38.715Z,22.20
2018-07-01T10:48:10.158Z,24.10
2018-07-01T10:50:41.565Z,24.40
2018-07-01T10:53:13.031Z,23.60
2018-07-01T10:55:43.872Z,22.90
2018-07-01T10:58:14.594Z,23.10
2018-07-01T11:00:45.374Z,24.60
2018-07-01T11:05:45.990Z,23.70
2018-07-01T11:08:16.661Z,24.10
2018-07-01T11:10:47.253Z,25.20
2018-07-01T11:13:18.261Z,26.30
2018-07-01T11:15:48.940Z,27.40
2018-07-01T11:18:19.467Z,26.70
2018-07-01T11:20:50.272Z,28.10
2018-07-01T11:23:21.330Z,27.60
2018-07-01T11:25:52.097Z,29.00
2018-07-01T11:28:22.854Z,30.40
2018-07-01T11:30:53.894Z,30.30
2018-07-01T11:33:24.691Z,28.70
2018-07-01T11:35:55.429Z,27.90
2018-07-01T11:38:26.387Z,28.90
2018-07-01T11:40:56.900Z,29.00
2018-07-01T11:43:27.399Z,29.20
2018-07-01T11:45:58.666Z,30.60
2018-07-01T11:48:29.492Z,30.70
2018-07-01T11:56:01.614Z,29.20
2018-07-01T11:58:32.333Z,29.60
2018-07-01T12:01:02.999Z,28.70
2018-07-01T12:03:33.608Z,29.10
2018-07-01T12:06:04.719Z,29.30
2018-07-01T12:08:35.370Z,29.10
2018-07-01T12:11:06.208Z,31.10
2018-07-01T12:13:37.086Z,30.80
2018-07-01T12:16:07.684Z,30.70
2018-07-01T12:18:38.505Z,29.70
2018-07-01T12:21:09.293Z,28.70
2018-07-01T12:23:40.829Z,29.30
2018-07-01T12:26:11.534Z,31.10
2018-07-01T12:28:42.377Z,30.50
2018-07-01T12:31:13.266Z,30.00
2018-07-01T12:33:44.041Z,31.30
2018-07-01T12:38:45.012Z,30.50
2018-07-01T12:41:16.277Z,29.70
2018-07-01T12:43:46.947Z,30.10
2018-07-01T12:46:17.733Z,29.80
2018-07-01T12:48:48.396Z,29.50
2018-07-01T12:51:18.987Z,29.90
2018-07-01T12:53:49.978Z,30.00
2018-07-01T12:56:21.843Z,31.60
2018-07-01T12:58:52.716Z,29.70
2018-07-01T13:01:23.660Z,30.60
2018-07-01T13:03:55.365Z,29.90
2018-07-01T13:06:26.323Z,29.70
2018-07-01T13:08:57.681Z,31.10
2018-07-01T13:11:28.850Z,31.10
2018-07-01T13:13:59.686Z,30.40
2018-07-01T13:16:30.442Z,31.10
2018-07-01T13:19:01.239Z,29.50
2018-07-01T13:21:32.768Z,29.40
2018-07-01T13:24:03.443Z,30.10
2018-07-01T13:26:34.104Z,29.90
2018-07-01T13:29:05.026Z,29.80
2018-07-01T13:31:35.574Z,29.60
2018-07-01T13:34:06.420Z,29.40
2018-07-01T13:36:36.936Z,31.10
2018-07-01T13:39:11.291Z,29.20
2018-07-01T13:41:42.124Z,30.70
2018-07-01T13:46:43.232Z,29.50
2018-07-01T13:49:14.436Z,29.60
2018-07-01T13:51:45.092Z,31.90
2018-07-01T13:54:15.727Z,31.60
2018-07-01T13:56:46.471Z,30.60
2018-07-01T13:59:17.152Z,29.20
2018-07-01T14:01:48.565Z,29.20
2018-07-01T14:04:19.130Z,28.90
2018-07-01T14:06:49.911Z,28.70
2018-07-01T14:09:20.538Z,29.80
2018-07-01T14:14:21.672Z,29.30
2018-07-01T14:16:52.590Z,28.90
2018-07-01T14:19:23.184Z,29.90
2018-07-01T14:21:53.832Z,29.60
2018-07-01T14:24:24.598Z,29.40
2018-07-01T14:26:59.193Z,29.70
2018-07-01T14:29:30.347Z,29.10
2018-07-01T14:32:07.409Z,29.10
2018-07-01T14:34:38.368Z,29.50
2018-07-01T14:37:08.954Z,29.70
2018-07-01T14:39:39.735Z,29.60
2018-07-01T14:42:10.497Z,29.70
2018-07-01T14:44:41.633Z,30.50
2018-07-01T14:47:12.204Z,29.30
2018-07-01T14:49:42.954Z,29.40
2018-07-01T14:52:13.664Z,29.10
2018-07-01T14:54:44.562Z,30.30
2018-07-01T14:57:15.139Z,30.00
2018-07-01T14:59:45.764Z,31.10
2018-07-01T15:02:16.509Z,29.10
2018-07-01T15:04:47.230Z,29.00
2018-07-01T15:07:17.964Z,28.60
2018-07-01T15:12:18.854Z,30.60
2018-07-01T15:14:50.477Z,30.00
2018-07-01T15:17:21.188Z,29.60
2018-07-01T15:19:51.923Z,29.60
2018-07-01T15:22:22.371Z,29.80
2018-07-01T15:24:53.070Z,29.10
2018-07-01T15:27:23.754Z,29.70
2018-07-01T15:29:54.461Z,30.00
2018-07-01T15:32:25.150Z,29.60
2018-07-01T15:34:56.182Z,29.10
2018-07-01T15:37:27.159Z,29.80
2018-07-01T15:39:58.393Z,31.40
2018-07-01T15:42:29.250Z,29.80
2018-07-01T15:45:01.154Z,29.90
2018-07-01T15:47:31.816Z,29.50
2018-07-01T15:50:02.418Z,30.00
2018-07-01T15:52:34.124Z,30.10
2018-07-01T15:55:04.829Z,29.50
2018-07-01T15:57:35.570Z,30.30
2018-07-01T16:00:08.220Z,30.80
2018-07-01T16:02:39.887Z,30.60
2018-07-01T16:05:10.933Z,30.80
2018-07-01T16:07:41.637Z,29.20
2018-07-01T16:10:12.465Z,29.50
2018-07-01T16:12:43.090Z,29.90
2018-07-01T16:15:13.734Z,31.80
2018-07-01T16:17:44.401Z,30.90
2018-07-01T16:20:15.818Z,30.70
2018-07-01T16:22:46.590Z,31.00
2018-07-01T16:25:22.375Z,29.80
2018-07-01T16:27:58.338Z,29.80
2018-07-01T16:30:29.138Z,30.00
2018-07-01T16:32:59.823Z,30.90
2018-07-01T16:35:30.523Z,30.00
2018-07-01T16:38:01.393Z,30.10
2018-07-01T16:40:32.334Z,29.70
2018-07-01T16:43:03.624Z,29.80
2018-07-01T16:45:34.255Z,29.80
2018-07-01T16:48:04.924Z,29.60
2018-07-01T16:50:35.793Z,30.00
2018-07-01T16:53:06.380Z,29.60
2018-07-01T16:55:37.000Z,30.00
2018-07-01T16:58:07.771Z,30.10
2018-07-01T17:00:38.535Z,30.00
2018-07-01T17:03:09.269Z,29.70
2018-07-01T17:05:40.054Z,29.00
2018-07-01T17:08:10.722Z,30.20
2018-07-01T17:10:41.376Z,29.80
2018-07-01T17:13:12.175Z,29.70
2018-07-01T17:19:23.009Z,30.70
2018-07-01T17:21:53.734Z,30.80
2018-07-01T17:24:24.431Z,29.90
2018-07-01T17:26:55.187Z,31.00
2018-07-01T17:29:26.000Z,30.40
2018-07-01T17:32:01.750Z,31.30
2018-07-01T17:34:32.409Z,29.00
2018-07-01T17:37:03.655Z,29.20
2018-07-01T17:39:34.350Z,29.20
2018-07-01T17:42:04.987Z,29.20
2018-07-01T17:47:05.777Z,29.80
2018-07-01T17:49:36.393Z,28.80
2018-07-01T17:52:07.126Z,28.80
2018-07-01T17:57:08.195Z,29.60
2018-07-01T17:59:39.041Z,30.00
2018-07-01T18:02:09.823Z,29.70
2018-07-01T18:04:40.632Z,29.90
2018-07-01T18:07:11.262Z,31.80
2018-07-01T18:09:41.983Z,30.60
2018-07-01T18:12:13.118Z,30.10
2018-07-01T18:14:44.094Z,30.40
2018-07-01T18:17:14.781Z,30.90
2018-07-01T18:19:45.438Z,31.00
2018-07-01T18:22:27.949Z,31.20
2018-07-01T18:25:01.542Z,32.40
2018-07-01T18:27:17.996Z,31.40
2018-07-01T18:30:36.447Z,32.80
2018-07-01T18:33:08.232Z,36.10
2018-07-01T18:35:39.781Z,36.40
2018-07-01T18:38:20.023Z,36.10
2018-07-01T18:40:51.272Z,35.50
2018-07-01T18:43:23.828Z,36.10
2018-07-01T18:45:54.537Z,37.30
2018-07-01T18:48:25.375Z,38.10
2018-07-01T18:50:56.947Z,38.80
2018-07-01T18:53:27.854Z,37.20
2018-07-01T18:55:58.802Z,41.50
2018-07-01T18:58:29.780Z,40.50
2018-07-01T19:01:00.601Z,41.50
2018-07-01T19:03:31.286Z,43.10
2018-07-01T19:06:02.053Z,43.60
2018-07-01T19:08:32.857Z,45.20
2018-07-01T19:11:03.712Z,44.10
2018-07-01T19:13:34.373Z,43.80
2018-07-01T19:16:05.258Z,44.40
2018-07-01T19:21:08.956Z,46.60
2018-07-01T19:23:40.084Z,46.80
2018-07-01T19:26:10.695Z,47.00
2018-07-01T19:28:41.282Z,49.00
2018-07-01T19:33:42.995Z,49.90
2018-07-01T19:36:13.674Z,48.20
2018-07-01T19:38:44.652Z,48.80
2018-07-01T19:41:15.273Z,47.80
2018-07-01T19:43:45.837Z,48.80
2018-07-01T19:46:16.461Z,49.20
2018-07-01T19:48:47.330Z,52.30
2018-07-01T19:51:17.858Z,52.80
2018-07-01T19:53:48.765Z,50.10
2018-07-01T19:56:20.227Z,50.50
2018-07-01T19:58:51.017Z,50.30
2018-07-01T20:01:22.843Z,52.40
2018-07-01T20:03:53.718Z,51.40
2018-07-01T20:06:25.544Z,52.80
2018-07-01T20:08:57.041Z,51.50
2018-07-01T20:11:28.330Z,52.30
2018-07-01T20:13:59.199Z,55.70
2018-07-01T20:16:30.920Z,55.80
2018-07-01T20:19:01.813Z,53.90
2018-07-01T20:21:33.485Z,54.10
2018-07-01T20:24:05.164Z,56.00
2018-07-01T20:26:36.666Z,57.80
2018-07-01T20:29:08.529Z,55.70
2018-07-01T20:31:39.256Z,56.00
2018-07-01T20:34:09.997Z,55.60
2018-07-01T20:36:40.522Z,53.30
2018-07-01T20:39:13.652Z,53.10
2018-07-01T20:41:44.118Z,55.20
2018-07-01T20:44:15.037Z,53.00
2018-07-01T20:46:45.884Z,57.70
2018-07-01T20:49:16.699Z,54.00
2018-07-01T20:51:47.622Z,55.40
2018-07-01T20:54:18.611Z,56.20
2018-07-01T20:56:49.476Z,57.00
2018-07-01T20:59:20.074Z,54.90
2018-07-01T21:01:50.754Z,56.90
2018-07-01T21:04:23.479Z,55.00
2018-07-01T21:09:24.406Z,55.20
2018-07-01T21:11:55.238Z,55.40
2018-07-01T21:14:26.521Z,54.50
2018-07-01T21:16:58.263Z,53.40
2018-07-01T21:19:30.036Z,53.20
2018-07-01T21:22:00.491Z,54.30
2018-07-01T21:24:31.089Z,55.50
2018-07-01T21:27:04.138Z,55.60
2018-07-01T21:29:34.691Z,57.40
2018-07-01T21:32:05.702Z,56.80
2018-07-01T21:34:36.305Z,54.80
2018-07-01T21:37:07.212Z,52.60
2018-07-01T21:39:37.860Z,54.60
2018-07-01T21:42:08.753Z,53.40
2018-07-01T21:44:39.391Z,53.70
2018-07-01T21:47:10.211Z,54.40
2018-07-01T21:49:40.916Z,54.50
2018-07-01T21:52:11.649Z,52.50
2018-07-01T21:54:42.245Z,53.50
2018-07-01T21:57:13.653Z,52.80
2018-07-01T21:59:44.130Z,52.60
2018-07-01T22:02:14.655Z,51.70
2018-07-01T22:04:45.234Z,52.80
2018-07-01T22:07:15.860Z,52.80
2018-07-01T22:09:46.835Z,53.50
2018-07-01T22:12:34.335Z,51.40
2018-07-01T22:15:26.312Z,51.50
2018-07-01T22:17:57.913Z,54.20
2018-07-01T22:20:28.808Z,53.60
2018-07-01T22:22:59.387Z,53.10
2018-07-01T22:25:30.147Z,51.10
2018-07-01T22:28:04.975Z,52.90
2018-07-01T22:30:35.809Z,50.80
2018-07-01T22:33:06.523Z,53.20
2018-07-01T22:35:37.113Z,52.10
2018-07-01T22:38:08.403Z,50.20
2018-07-01T22:40:39.029Z,51.70
2018-07-01T22:43:09.757Z,53.90
2018-07-01T22:45:40.365Z,52.80
2018-07-01T22:48:10.949Z,53.00
2018-07-01T22:50:41.931Z,52.30
2018-07-01T22:55:42.800Z,52.20
2018-07-01T22:58:13.706Z,54.50
2018-07-01T23:00:44.283Z,52.70
2018-07-01T23:03:17.343Z,53.00
2018-07-01T23:10:52.029Z,54.40
2018-07-01T23:13:22.615Z,52.80
2018-07-01T23:15:53.170Z,53.10
2018-07-01T23:18:23.807Z,53.50
2018-07-01T23:20:54.703Z,54.80
2018-07-01T23:23:25.293Z,53.10
2018-07-01T23:25:55.907Z,53.10
2018-07-01T23:28:26.538Z,53.30
2018-07-01T23:30:57.301Z,52.80
2018-07-01T23:33:27.828Z,54.00
2018-07-01T23:35:58.436Z,53.00
2018-07-01T23:38:29.757Z,55.40
2018-07-01T23:41:00.516Z,54.70
2018-07-01T23:43:31.244Z,54.30
2018-07-01T23:46:01.912Z,54.50
2018-07-01T23:48:32.532Z,53.20
2018-07-01T23:51:03.159Z,53.20
2018-07-01T23:53:33.876Z,51.90
2018-07-01T23:56:04.516Z,51.30
2018-07-01T23:58:35.447Z,49.80
